MSC Sinfonia — H8XH — position and weather

sailwx.info

Track history (hours):
 
Tides and Currents Weather Stations Pressure Air Temp Water Temp Dewpoint Dewpoint Depression Visibility Wind Speed Wind Dir Waves Ship Positions

MSC Sinfonia

Last reported at 2015-Mar-30 10:29 UTC. Time now 2015-Mar-30 10:45 UTC.
Position N 43°21' E 005°20'.

Length 251 m; draft 6.8 m.

Type: Passenger vessel. MMSI: 356715971.

Date/timePositionNaut miles runAvg speedWind from/ knotsBaromVisibWave heightAir tempDewpointWater temp
2015-Mar-30 10:29N 43°21' E 005°20'0 0.0
2015-Mar-30 09:17N 43°21' E 005°20'0 0.0
2015-Mar-30 08:29N 43°21' E 005°20'0 0.2
2015-Mar-30 07:33N 43°21' E 005°20'8 8.3
2015-Mar-30 06:33N 43°15' E 005°11'3023.5
2015-Mar-30 05:16N 42°53' E 004°43'14610.4
2015-Mar-29 15:13N 41°22' E 002°11'0 0.0
2015-Mar-29 13:33N 41°22' E 002°11'4 4.4
2015-Mar-29 12:33N 41°17' E 002°12'2712.8
2015-Mar-29 10:28N 41°32' E 002°42'5819.4
2015-Mar-29 07:28N 42°20' E 003°25'16112.5
2015-Mar-28 18:34N 42°26' E 007°03'96 4.6
2015-Mar-27 21:34N 43°27' E 008°44'1817.6
2015-Mar-27 20:34N 43°45' E 008°48'1817.7
2015-Mar-27 19:33N 44°02' E 008°53'1817.9
2015-Mar-27 18:33N 44°20' E 008°57'5 3.4
2015-Mar-27 17:06N 44°25' E 008°55'0 0.0
2015-Mar-27 16:30N 44°25' E 008°55'0 0.0
2015-Mar-27 15:30N 44°25' E 008°55'0 0.0
2015-Mar-27 14:30N 44°25' E 008°55'0 0.0
2015-Mar-27 13:30N 44°25' E 008°55'0 0.0
2015-Mar-27 12:30N 44°25' E 008°55'0 0.0
2015-Mar-27 11:30N 44°25' E 008°55'0 0.0
2015-Mar-27 10:24N 44°25' E 008°55'0 0.0
2015-Mar-27 09:30N 44°25' E 008°55'0 0.0
2015-Mar-27 08:24N 44°25' E 008°55'0 0.0
2015-Mar-27 07:30N 44°25' E 008°55'1 0.6
2015-Mar-27 06:33N 44°24' E 008°55'1010.3
2015-Mar-27 05:33N 44°15' E 009°03'1716.9
2015-Mar-27 04:33N 44°00' E 009°14'2019.6
2015-Mar-27 03:33N 43°43' E 009°26'2020.4
2015-Mar-27 02:33N 43°25' E 009°40'2020.2
2015-Mar-27 01:33N 43°09' E 009°58'20119.7
2015-Mar-26 15:23N 40°46' E 013°06'1720.3
2015-Mar-26 14:33N 40°41' E 013°27'2020.2
2015-Mar-26 13:33N 40°38' E 013°54'1918.9
2015-Mar-26 12:33N 40°48' E 014°15'1 0.1
2015-Mar-25 10:31N 40°46' E 014°15'1110.8
2015-Mar-25 09:32N 40°37' E 014°09'1312.6
2015-Mar-25 08:32N 40°25' E 014°04'11416.3
2015-Mar-25 01:31N 38°33' E 013°33'1717.6
2015-Mar-25 00:33N 38°16' E 013°28'9 9.3
2015-Mar-24 23:33N 38°08' E 013°22'0 0.0
2015-Mar-24 22:33N 38°08' E 013°22'0 0.0
2015-Mar-24 21:33N 38°08' E 013°22'0 0.0
2015-Mar-24 20:33N 38°08' E 013°22'0 0.0
2015-Mar-24 19:33N 38°08' E 013°22'0 0.0
2015-Mar-24 18:33N 38°08' E 013°22'0 0.0
2015-Mar-24 17:33N 38°08' E 013°22'0 0.0
2015-Mar-24 16:33N 38°08' E 013°22'0 0.0
2015-Mar-24 15:30N 38°08' E 013°22'0 0.0
2015-Mar-24 14:33N 38°08' E 013°22'0 0.0
2015-Mar-24 13:33N 38°08' E 013°22'0 0.0
2015-Mar-24 12:33N 38°08' E 013°22'0 0.0
2015-Mar-24 11:33N 38°08' E 013°22'0 0.0
2015-Mar-24 10:33N 38°08' E 013°22'0 0.0
2015-Mar-24 09:30N 38°08' E 013°22'0 0.0
2015-Mar-24 08:33N 38°08' E 013°22'0 0.0
2015-Mar-24 07:33N 38°08' E 013°22'0 0.0
2015-Mar-24 06:33N 38°08' E 013°22'0 0.0
2015-Mar-24 05:33N 38°08' E 013°22'0 0.0
2015-Mar-24 04:33N 38°08' E 013°22'0 0.0
2015-Mar-24 03:33N 38°08' E 013°22'0 0.0
2015-Mar-24 02:33N 38°08' E 013°22'0 0.0
2015-Mar-24 01:33N 38°08' E 013°22'0 0.0
2015-Mar-24 00:33N 38°08' E 013°22'0 0.0
2015-Mar-23 23:33N 38°08' E 013°22'0 0.0
2015-Mar-23 22:33N 38°08' E 013°22'0 0.0
2015-Mar-23 21:33N 38°08' E 013°22'0 0.0
2015-Mar-23 20:33N 38°08' E 013°22'0 0.0
2015-Mar-23 19:33N 38°08' E 013°22'0 0.0
2015-Mar-23 18:33N 38°08' E 013°22'0 0.0
2015-Mar-23 17:33N 38°08' E 013°22'0 0.0
2015-Mar-23 16:33N 38°08' E 013°22'0 0.0
2015-Mar-23 15:33N 38°08' E 013°22'0 0.0
2015-Mar-23 14:33N 38°08' E 013°22'0 0.0
2015-Mar-23 13:33N 38°08' E 013°22'0 0.0
2015-Mar-23 12:33N 38°08' E 013°22'0 0.0
2015-Mar-23 11:33N 38°08' E 013°22'0 0.0
2015-Mar-23 10:33N 38°08' E 013°22'0 0.0
2015-Mar-23 09:33N 38°08' E 013°22'0 0.0
2015-Mar-23 08:33N 38°08' E 013°22'0 0.0
2015-Mar-23 07:33N 38°08' E 013°22'0 0.0
2015-Mar-23 06:33N 38°08' E 013°22'0 0.0
2015-Mar-23 05:33N 38°08' E 013°22'0 0.0
2015-Mar-23 04:30N 38°08' E 013°22'0 0.0
2015-Mar-23 03:33N 38°08' E 013°22'0 0.0
2015-Mar-23 02:33N 38°08' E 013°22'0 0.0
2015-Mar-23 01:33N 38°08' E 013°22'0 0.0
2015-Mar-23 00:33N 38°08' E 013°22'0 0.0
2015-Mar-22 23:33N 38°08' E 013°22'0 0.0
2015-Mar-22 22:33N 38°08' E 013°22'0 0.0
2015-Mar-22 21:33N 38°08' E 013°22'0 0.0
2015-Mar-22 20:33N 38°08' E 013°22'0 0.0
2015-Mar-22 19:33N 38°08' E 013°22'0 0.0
2015-Mar-22 18:24N 38°08' E 013°22'0 0.0
2015-Mar-22 17:24N 38°08' E 013°22'0 0.0
2015-Mar-22 16:27N 38°08' E 013°22'0 0.0
2015-Mar-22 15:27N 38°08' E 013°22'0 0.0
2015-Mar-22 14:27N 38°08' E 013°22'0 0.0
2015-Mar-22 13:27N 38°08' E 013°22'0 0.0
2015-Mar-22 12:30N 38°08' E 013°22'0 0.0
2015-Mar-22 11:33N 38°08' E 013°22'0 0.0
2015-Mar-22 10:33N 38°08' E 013°22'0 0.0
2015-Mar-22 09:33N 38°08' E 013°22'0 0.0
2015-Mar-22 08:33N 38°08' E 013°22'0 0.0
2015-Mar-22 07:33N 38°08' E 013°22'0 0.0
2015-Mar-22 06:33N 38°08' E 013°22'0 0.0
2015-Mar-22 05:24N 38°08' E 013°22'0 0.0
2015-Mar-22 04:21N 38°08' E 013°22'0 0.0
2015-Mar-22 03:27N 38°08' E 013°22'0 0.0
2015-Mar-22 02:27N 38°08' E 013°22'0 0.0
2015-Mar-22 01:27N 38°08' E 013°22'0 0.0
2015-Mar-22 00:30N 38°08' E 013°22'0 0.0
2015-Mar-21 23:30N 38°08' E 013°22'0 0.0
2015-Mar-21 22:30N 38°08' E 013°22'0 0.0
2015-Mar-21 21:27N 38°08' E 013°22'0 0.0
2015-Mar-21 20:18N 38°08' E 013°22'0 0.0
2015-Mar-21 19:33N 38°08' E 013°22'0 0.0
2015-Mar-21 18:33N 38°08' E 013°22'0 0.0
2015-Mar-21 17:33N 38°08' E 013°22'0 0.0
2015-Mar-21 16:33N 38°08' E 013°22'0 0.0
2015-Mar-21 15:21N 38°08' E 013°22'0 0.0
2015-Mar-21 14:21N 38°08' E 013°22'0 0.0
2015-Mar-21 13:24N 38°08' E 013°22'0 0.0
2015-Mar-21 12:27N 38°08' E 013°22'0 0.0
2015-Mar-21 11:27N 38°08' E 013°22'0 0.0
2015-Mar-21 10:30N 38°08' E 013°22'0 0.0
2015-Mar-21 09:30N 38°08' E 013°22'0 0.0
2015-Mar-21 08:27N 38°08' E 013°22'0 0.0
2015-Mar-21 07:33N 38°08' E 013°22'0 0.0
2015-Mar-21 06:33N 38°08' E 013°22'0 0.0
2015-Mar-21 05:33N 38°08' E 013°22'0 0.0
2015-Mar-21 04:33N 38°08' E 013°22'0 0.0
2015-Mar-21 03:21N 38°08' E 013°22'0 0.0
2015-Mar-21 02:33N 38°08' E 013°22'0 0.0
2015-Mar-21 01:33N 38°08' E 013°22'0 0.0
2015-Mar-21 00:24N 38°08' E 013°22'0 0.0
2015-Mar-20 23:27N 38°08' E 013°22'0 0.0
2015-Mar-20 22:27N 38°08' E 013°22'0 0.0
2015-Mar-20 21:27N 38°08' E 013°22'0 0.0
2015-Mar-20 20:27N 38°08' E 013°22'0 0.0
2015-Mar-20 19:30N 38°08' E 013°22'0 0.0
2015-Mar-20 18:33N 38°08' E 013°22'0 0.0
2015-Mar-20 17:30N 38°08' E 013°22'0 0.0
2015-Mar-20 16:30N 38°08' E 013°22'0 0.0
2015-Mar-20 15:33N 38°08' E 013°22'0 0.0
2015-Mar-20 14:21N 38°08' E 013°22'0 0.0
2015-Mar-20 13:33N 38°08' E 013°22'0 0.0
2015-Mar-20 12:33N 38°08' E 013°22'0 0.0
2015-Mar-20 11:24N 38°08' E 013°22'  
Track history (hours):
 
Tides and Currents Weather Stations Pressure Air Temp Water Temp Dewpoint Dewpoint Depression Visibility Wind Speed Wind Dir Waves Ship Positions

MSC Sinfonia

Last reported at 2015-Mar-30 10:29 UTC. Time now 2015-Mar-30 10:45 UTC.
Position N 43°21' E 005°20'.

Length 251 m; draft 6.8 m.

Type: Passenger vessel. MMSI: 356715971.

Date/timePositionNaut miles runAvg speedWind from/ knotsBaromVisibWave heightAir tempDewpointWater temp
2015-Mar-30 10:29N 43°21' E 005°20'0 0.0
2015-Mar-30 09:17N 43°21' E 005°20'0 0.0
2015-Mar-30 08:29N 43°21' E 005°20'0 0.2
2015-Mar-30 07:33N 43°21' E 005°20'8 8.3
2015-Mar-30 06:33N 43°15' E 005°11'3023.5
2015-Mar-30 05:16N 42°53' E 004°43'14610.4
2015-Mar-29 15:13N 41°22' E 002°11'0 0.0
2015-Mar-29 13:33N 41°22' E 002°11'4 4.4
2015-Mar-29 12:33N 41°17' E 002°12'2712.8
2015-Mar-29 10:28N 41°32' E 002°42'5819.4
2015-Mar-29 07:28N 42°20' E 003°25'16112.5
2015-Mar-28 18:34N 42°26' E 007°03'96 4.6
2015-Mar-27 21:34N 43°27' E 008°44'1817.6
2015-Mar-27 20:34N 43°45' E 008°48'1817.7
2015-Mar-27 19:33N 44°02' E 008°53'1817.9
2015-Mar-27 18:33N 44°20' E 008°57'5 3.4
2015-Mar-27 17:06N 44°25' E 008°55'0 0.0
2015-Mar-27 16:30N 44°25' E 008°55'0 0.0
2015-Mar-27 15:30N 44°25' E 008°55'0 0.0
2015-Mar-27 14:30N 44°25' E 008°55'0 0.0
2015-Mar-27 13:30N 44°25' E 008°55'0 0.0
2015-Mar-27 12:30N 44°25' E 008°55'0 0.0
2015-Mar-27 11:30N 44°25' E 008°55'0 0.0
2015-Mar-27 10:24N 44°25' E 008°55'0 0.0
2015-Mar-27 09:30N 44°25' E 008°55'0 0.0
2015-Mar-27 08:24N 44°25' E 008°55'0 0.0
2015-Mar-27 07:30N 44°25' E 008°55'1 0.6
2015-Mar-27 06:33N 44°24' E 008°55'1010.3
2015-Mar-27 05:33N 44°15' E 009°03'1716.9
2015-Mar-27 04:33N 44°00' E 009°14'2019.6
2015-Mar-27 03:33N 43°43' E 009°26'2020.4
2015-Mar-27 02:33N 43°25' E 009°40'2020.2
2015-Mar-27 01:33N 43°09' E 009°58'20119.7
2015-Mar-26 15:23N 40°46' E 013°06'1720.3
2015-Mar-26 14:33N 40°41' E 013°27'2020.2
2015-Mar-26 13:33N 40°38' E 013°54'1918.9
2015-Mar-26 12:33N 40°48' E 014°15'1 0.1
2015-Mar-25 10:31N 40°46' E 014°15'1110.8
2015-Mar-25 09:32N 40°37' E 014°09'1312.6
2015-Mar-25 08:32N 40°25' E 014°04'11416.3
2015-Mar-25 01:31N 38°33' E 013°33'1717.6
2015-Mar-25 00:33N 38°16' E 013°28'9 9.3
2015-Mar-24 23:33N 38°08' E 013°22'0 0.0
2015-Mar-24 22:33N 38°08' E 013°22'0 0.0
2015-Mar-24 21:33N 38°08' E 013°22'0 0.0
2015-Mar-24 20:33N 38°08' E 013°22'0 0.0
2015-Mar-24 19:33N 38°08' E 013°22'0 0.0
2015-Mar-24 18:33N 38°08' E 013°22'0 0.0
2015-Mar-24 17:33N 38°08' E 013°22'0 0.0
2015-Mar-24 16:33N 38°08' E 013°22'0 0.0
2015-Mar-24 15:30N 38°08' E 013°22'0 0.0
2015-Mar-24 14:33N 38°08' E 013°22'0 0.0
2015-Mar-24 13:33N 38°08' E 013°22'0 0.0
2015-Mar-24 12:33N 38°08' E 013°22'0 0.0
2015-Mar-24 11:33N 38°08' E 013°22'0 0.0
2015-Mar-24 10:33N 38°08' E 013°22'0 0.0
2015-Mar-24 09:30N 38°08' E 013°22'0 0.0
2015-Mar-24 08:33N 38°08' E 013°22'0 0.0
2015-Mar-24 07:33N 38°08' E 013°22'0 0.0
2015-Mar-24 06:33N 38°08' E 013°22'0 0.0
2015-Mar-24 05:33N 38°08' E 013°22'0 0.0
2015-Mar-24 04:33N 38°08' E 013°22'0 0.0
2015-Mar-24 03:33N 38°08' E 013°22'0 0.0
2015-Mar-24 02:33N 38°08' E 013°22'0 0.0
2015-Mar-24 01:33N 38°08' E 013°22'0 0.0
2015-Mar-24 00:33N 38°08' E 013°22'0 0.0
2015-Mar-23 23:33N 38°08' E 013°22'0 0.0
2015-Mar-23 22:33N 38°08' E 013°22'0 0.0
2015-Mar-23 21:33N 38°08' E 013°22'0 0.0
2015-Mar-23 20:33N 38°08' E 013°22'0 0.0
2015-Mar-23 19:33N 38°08' E 013°22'0 0.0
2015-Mar-23 18:33N 38°08' E 013°22'0 0.0
2015-Mar-23 17:33N 38°08' E 013°22'0 0.0
2015-Mar-23 16:33N 38°08' E 013°22'0 0.0
2015-Mar-23 15:33N 38°08' E 013°22'0 0.0
2015-Mar-23 14:33N 38°08' E 013°22'0 0.0
2015-Mar-23 13:33N 38°08' E 013°22'0 0.0
2015-Mar-23 12:33N 38°08' E 013°22'0 0.0
2015-Mar-23 11:33N 38°08' E 013°22'0 0.0
2015-Mar-23 10:33N 38°08' E 013°22'0 0.0
2015-Mar-23 09:33N 38°08' E 013°22'0 0.0
2015-Mar-23 08:33N 38°08' E 013°22'0 0.0
2015-Mar-23 07:33N 38°08' E 013°22'0 0.0
2015-Mar-23 06:33N 38°08' E 013°22'0 0.0
2015-Mar-23 05:33N 38°08' E 013°22'0 0.0
2015-Mar-23 04:30N 38°08' E 013°22'0 0.0
2015-Mar-23 03:33N 38°08' E 013°22'0 0.0
2015-Mar-23 02:33N 38°08' E 013°22'0 0.0
2015-Mar-23 01:33N 38°08' E 013°22'0 0.0
2015-Mar-23 00:33N 38°08' E 013°22'0 0.0
2015-Mar-22 23:33N 38°08' E 013°22'0 0.0
2015-Mar-22 22:33N 38°08' E 013°22'0 0.0
2015-Mar-22 21:33N 38°08' E 013°22'0 0.0
2015-Mar-22 20:33N 38°08' E 013°22'0 0.0
2015-Mar-22 19:33N 38°08' E 013°22'0 0.0
2015-Mar-22 18:24N 38°08' E 013°22'0 0.0
2015-Mar-22 17:24N 38°08' E 013°22'0 0.0
2015-Mar-22 16:27N 38°08' E 013°22'0 0.0
2015-Mar-22 15:27N 38°08' E 013°22'0 0.0
2015-Mar-22 14:27N 38°08' E 013°22'0 0.0
2015-Mar-22 13:27N 38°08' E 013°22'0 0.0
2015-Mar-22 12:30N 38°08' E 013°22'0 0.0
2015-Mar-22 11:33N 38°08' E 013°22'0 0.0
2015-Mar-22 10:33N 38°08' E 013°22'0 0.0
2015-Mar-22 09:33N 38°08' E 013°22'0 0.0
2015-Mar-22 08:33N 38°08' E 013°22'0 0.0
2015-Mar-22 07:33N 38°08' E 013°22'0 0.0
2015-Mar-22 06:33N 38°08' E 013°22'0 0.0
2015-Mar-22 05:24N 38°08' E 013°22'0 0.0
2015-Mar-22 04:21N 38°08' E 013°22'0 0.0
2015-Mar-22 03:27N 38°08' E 013°22'0 0.0
2015-Mar-22 02:27N 38°08' E 013°22'0 0.0
2015-Mar-22 01:27N 38°08' E 013°22'0 0.0
2015-Mar-22 00:30N 38°08' E 013°22'0 0.0
2015-Mar-21 23:30N 38°08' E 013°22'0 0.0
2015-Mar-21 22:30N 38°08' E 013°22'0 0.0
2015-Mar-21 21:27N 38°08' E 013°22'0 0.0
2015-Mar-21 20:18N 38°08' E 013°22'0 0.0
2015-Mar-21 19:33N 38°08' E 013°22'0 0.0
2015-Mar-21 18:33N 38°08' E 013°22'0 0.0
2015-Mar-21 17:33N 38°08' E 013°22'0 0.0
2015-Mar-21 16:33N 38°08' E 013°22'0 0.0
2015-Mar-21 15:21N 38°08' E 013°22'0 0.0
2015-Mar-21 14:21N 38°08' E 013°22'0 0.0
2015-Mar-21 13:24N 38°08' E 013°22'0 0.0
2015-Mar-21 12:27N 38°08' E 013°22'0 0.0
2015-Mar-21 11:27N 38°08' E 013°22'0 0.0
2015-Mar-21 10:30N 38°08' E 013°22'0 0.0
2015-Mar-21 09:30N 38°08' E 013°22'0 0.0
2015-Mar-21 08:27N 38°08' E 013°22'0 0.0
2015-Mar-21 07:33N 38°08' E 013°22'0 0.0
2015-Mar-21 06:33N 38°08' E 013°22'0 0.0
2015-Mar-21 05:33N 38°08' E 013°22'0 0.0
2015-Mar-21 04:33N 38°08' E 013°22'0 0.0
2015-Mar-21 03:21N 38°08' E 013°22'0 0.0
2015-Mar-21 02:33N 38°08' E 013°22'0 0.0
2015-Mar-21 01:33N 38°08' E 013°22'0 0.0
2015-Mar-21 00:24N 38°08' E 013°22'0 0.0
2015-Mar-20 23:27N 38°08' E 013°22'0 0.0
2015-Mar-20 22:27N 38°08' E 013°22'0 0.0
2015-Mar-20 21:27N 38°08' E 013°22'0 0.0
2015-Mar-20 20:27N 38°08' E 013°22'0 0.0
2015-Mar-20 19:30N 38°08' E 013°22'0 0.0
2015-Mar-20 18:33N 38°08' E 013°22'0 0.0
2015-Mar-20 17:30N 38°08' E 013°22'0 0.0
2015-Mar-20 16:30N 38°08' E 013°22'0 0.0
2015-Mar-20 15:33N 38°08' E 013°22'0 0.0
2015-Mar-20 14:21N 38°08' E 013°22'0 0.0
2015-Mar-20 13:33N 38°08' E 013°22'0 0.0
2015-Mar-20 12:33N 38°08' E 013°22'0 0.0
2015-Mar-20 11:24N 38°08' E 013°22'  

Dump ship's entire track history